Woodlyn, Pennsylvania
Current Conditions -  °F | °C
As of 10:54 PM on Saturday 25 Oct 2014 (Local Time) from KPHL Reporting Station
Clear Clear  
Wind Chill: 59°   Ceiling: Unl
Heat Index: 59°   Visibility: 10mi
Dew Point: 44°   Wind: 12mph
Humidity: 58%   Direction: 230°SW
Pressure: 29.66"   Gusts: NA
Location:  39.88°N, 75.34°W
Report Text: KPHL 260254Z 23010KT 10SM CLR 15/07 A2966 RMK AO2 SLP042 T01500067 58012
Loading
Personal Weather Stations






























Interactive Weather Map
Tropical Storm Tracking
New forecast layout! Learn more

10-Day Weather Forecast

Advertisements
Track Severe Weather on mobile